ADDS METAR Data INFO
IDs: Format: Raw Decoded Include TAF

Data at: 1144 UTC 23 Jun 2018

PASK 231056Z AUTO 28008KT 10SM OVC016 12/10 A3001 RMK AO2 SLP160 T01170100 $
PASK 231043Z AUTO 28007KT 10SM BKN016 12/10 A3001 RMK AO2 $
PASK 230956Z AUTO 26005KT 10SM CLR 12/11 A3000 RMK AO2 SLP157 T01170106 $
PASK 230856Z AUTO 30010KT 10SM OVC070 13/10 A2998 RMK AO2 SLP151 T01280100 401780128 53014 $
PASK 230756Z AUTO 30009KT 10SM OVC060 13/10 A2997 RMK AO2 SLP145 T01280100 $
PASK 230656Z AUTO 30011KT 10SM OVC055 13/11 A2995 RMK AO2 SLP141 T01330106 $
PASK 230556Z AUTO 28012G18KT 10SM OVC049 14/10 A2994 RMK AO2 SLP137 60000 T01440100 10167 20139 53011 $
PASK 230456Z AUTO 26011KT 10SM SCT055 15/11 A2993 RMK AO2 RAB0357E14 SLP134 P0000 T01500106 $
PASK 230356Z AUTO 24012KT 10SM SCT039 BKN070 16/11 A2992 RMK AO2 SLP129 T01560111 $
PASK 230256Z AUTO 23009KT 10SM BKN044 16/11 A2991 RMK AO2 SLP127 60000 T01610111 53005 $
PASK 230156Z AUTO 26006KT 10SM SCT065 17/10 A2990 RMK AO2 SLP124 T01670100 $
PASK 230056Z AUTO 28005KT 10SM OVC065 16/11 A2990 RMK AO2 RAE2358B32E56 SLP122 P0000 T01610111 $
PASK 222356Z AUTO 28007KT 10SM -RA OVC065 16/11 A2990 RMK AO2 RAB16 SLP121 P0000 60000 T01610106 10167 20150 53009 $
PASK 222256Z AUTO 27010KT 10SM CLR 16/09 A2989 RMK AO2 SLP118 T01610094 $
PASK 222156Z AUTO 27010G17KT 10SM CLR 17/11 A2988 RMK AO2 SLP115 T01670111 $
PASK 222056Z AUTO 26011KT 10SM FEW100 16/11 A2987 RMK AO2 SLP112 T01610111 53009 $
PASK 221956Z AUTO 26009KT 10SM SCT100 17/12 A2986 RMK AO2 SLP108 T01670117 $
PASK 221856Z AUTO 25009KT 10SM CLR 16/12 A2985 RMK AO2 SLP107 T01560122 $
PASK 221756Z AUTO 28005KT 10SM SCT100 14/12 A2984 RMK AO2 SLP103 60019 T01440122 10150 20128 51017 $
PASK 221656Z AUTO 29006KT 10SM BKN060 OVC080 13/11 A2983 RMK AO2 RAB13E49 SLP100 P0000 T01330111 $
PASK 221556Z AUTO 30006KT 10SM FEW060 BKN080 OVC100 13/11 A2982 RMK AO2 RAE54 SLP094 P0000 T01280111 $
PASK 221456Z AUTO 28007KT 10SM -RA OVC085 13/12 A2979 RMK AO2 SLP086 P0005 60019 T01330122 51013 $
PASK 221356Z AUTO 26007KT 10SM -RA FEW075 OVC090 13/12 A2979 RMK AO2 SLP084 P0004 T01330117 $
PASK 221256Z AUTO 24006KT 10SM -RA BKN065 OVC080 14/13 A2978 RMK AO2 SLP081 P0010 T01390128 $
PASK 221156Z AUTO 23007KT 10SM -RA OVC070 15/12 A2976 RMK AO2 RAB40 SLP074 P0000 60000 T01500122 10211 20150 53018 $
PASK 221056Z AUTO 28004KT 10SM BKN085 16/13 A2973 RMK AO2 SLP065 T01610128 $
PASK 220956Z AUTO 27004KT 10SM FEW070 BKN100 17/12 A2971 RMK AO2 SLP058 T01670122 $
PASK 220856Z AUTO 25007KT 10SM BKN080 OVC120 18/12 A2970 RMK AO2 SLP055 T01830122 402170139 53009 $
PASK 220756Z AUTO 00000KT 10SM FEW085 20/12 A2969 RMK AO2 SLP052 T02000122 $
PASK 220656Z AUTO 00000KT 10SM OVC085 21/12 A2968 RMK AO2 SLP049 T02060122 $
PASK 220556Z AUTO VRB03KT 9SM SCT100 21/13 A2968 RMK AO2 SLP046 60000 T02060133 10217 20206 53001 $
PASK 220456Z AUTO 08003KT 9SM CLR 21/12 A2967 RMK AO2 SLP045 T02110122 $
PASK 220356Z AUTO 07005KT 10SM OVC100 21/12 A2967 RMK AO2 SLP045 T02110122 $
PASK 220256Z AUTO 34003KT 10SM OVC100 21/12 A2967 RMK AO2 SLP045 60000 T02060122 58008 $
PASK 220156Z AUTO 00000KT 10SM OVC085 21/12 A2968 RMK AO2 SLP049 T02110117 $
PASK 220056Z AUTO 09005KT 10SM BKN090 BKN110 21/11 A2969 RMK AO2 RAE2359 SLP053 P0000 T02110111 $
PASK 212356Z AUTO 06006KT 10SM -RA FEW070 BKN095 21/11 A2970 RMK AO2 RAB46 SLP054 P0000 60000 T02060111 10217 20178 56012 $